AirNav   Everest Fuels
 
 686 users online  

3TA5 Blanco Landing Airport
Blanco, Texas, USA

GOING TO BLANCO?


FAA INFORMATION EFFECTIVE 21 MAY 2020

Location

FAA Identifier: 3TA5
Lat/Long: 30-07-20.8800N 098-22-29.2200W
30-07.348000N 098-22.487000W
30.1224667,-98.3747833
(estimated)
Elevation: 1460 ft. / 445 m (estimated)
Variation: 07E (1985)
From city: 3 miles NE of BLANCO, TX
Time zone: UTC -5 (UTC -6 during Standard Time)
Zip code: 78606

Airport Operations

Airport use: Private use. Permission required prior to landing
Activation date: 03/1981
Control tower: no
ARTCC: HOUSTON CENTER
FSS: SAN ANGELO FLIGHT SERVICE STATION
Attendance: UNATNDD
Wind indicator: yes
Segmented circle: no

Airport Communications

CTAF: 122.9

Nearby radio navigation aids

VOR radial/distance  VOR name  Freq  Var
STVr098/17.9STONEWALL VORTAC113.8008E
SATr001/29.1SAN ANTONIO VORTAC116.8008E
RNDr348/36.5RANDOLPH VORTAC112.3005E

Airport Services

Runway Information

Runway 1/19

Dimensions: 3450 x 27 ft. / 1052 x 8 m
Surface: asphalt
RUNWAY 1  RUNWAY 19
Traffic pattern: leftleft

Airport Ownership and Management from official FAA records

Ownership: Privately-owned
Owner: THE LANDING P.O.A.
3238 HWY 281 N
BLANCO, TX 78606
Phone (510) 910-3269
Manager: ROBERT GARCIA JR
3238 HWY 281 N
BLANCO, TX 78606
Phone (915) 525-7792
OTR (512) 461-5158

Airport Operational Statistics

Aircraft based on the field: 9
Single engine airplanes: 8
Helicopters: 1
    

Additional Remarks

FOR CD CTC HOUSTON ARTCC AT 281-230-5622.
RCMD OVER-FLY FLD TO INSURE RWY CLEAR OF WILDLIFE & MAINT CREWS AND TO CHECK WIND DRCTN FOR LNDG.
TALL TREES AT SOUTH AER TO INSURE PROPER CLNC.

Instrument Procedures

There are no published instrument procedures at 3TA5.

Some nearby airports with instrument procedures:

3R9 - Lakeway Airpark (24 nm NE)
T82 - Gillespie County Airport (29 nm W)
5C1 - Boerne Stage Field Airport (29 nm SW)
KHYI - San Marcos Regional Airport (30 nm SE)
KBAZ - New Braunfels Regional Airport (30 nm SE)
 
Loc | Ops | Rwys | IFR | FBO | Links
Com | Nav | Svcs | Stats | Notes
Area around 3TA5 (Blanco Landing Airport)
 
Road maps at: MapQuest Bing Google
 
Aerial photo
WARNING: Photo may not be current or correct
Aerial photo of 3TA5 (Blanco Landing Airport)
Photo taken 18-Jul-2017
looking south.

Do you have a better or more recent aerial photo of Blanco Landing Airport that you would like to share? If so, please send us your photo.

 
Sectional chart

 
Airport distance calculator
Flying to Blanco Landing Airport? Find the distance to fly.

From to 3TA5

Sunrise and sunset
Times for 31-May-2020
 Local
(UTC-5)
 Zulu
(UTC)
Morning civil twilight06:0611:06
Sunrise06:3411:34
Sunset20:2901:29
Evening civil twilight20:5601:56

Current date and time
Zulu (UTC)  01-Jun-2020 04:10:33
Local (UTC-5)  31-May-2020 23:10:33
 
METAR
KDZB 
24nm N 
010401Z AUTO 15003KT 10SM CLR 22/18 A3014 RMK AO2
KT82 
29nm W 
010355Z AUTO 00000KT 10SM SCT110 20/20 A3016 RMK AO2 T01970195
K5C1 
29nm SW 
010355Z AUTO 00000KT 10SM SCT018 20/20 A3016 RMK AO1 P0002
KBAZ 
30nm SE 
010351Z AUTO 05004KT 7SM CLR 23/21 A3010 RMK AO2 RAE0255 SLP183 P0000 T02280211
KHYI 
30nm SE 
010356Z 04003KT 9SM CLR 22/21 A3012 RMK AO2 SLP190 T02170211
KRYW 
31nm NE 
010355Z AUTO 10003KT 10SM SCT032 21/20 A3014 RMK AO2 T02140200
KSAT 
36nm S 
010351Z 09003KT 10SM FEW025 OVC090 23/20 A3012 RMK AO2 SLP180 T02280200
KAUS 
36nm E 
010353Z 11003KT 10SM SCT033 BKN055 BKN250 23/22 A3011 RMK AO2 SLP185 T02330217
KATT 
37nm E 
010351Z AUTO VRB03KT 10SM SCT046 OVC065 24/21 A3012 RMK AO2 SLP186 T02390206
KRND 
37nm S 
010356Z AUTO 05003KT 10SM OVC130 22/21 A3010 RMK AO2 SLP186 T02150211 $
TAF
KSAT 
36nm S 
311739Z 3118/0124 08011KT P6SM VCTS SCT030CB OVC150 FM010300 05006KT P6SM OVC040 FM010900 04005KT P6SM VCSH OVC015 FM011100 03005KT P6SM VCSH BKN008 OVC015 FM011700 08008KT P6SM VCTS OVC040CB
KAUS 
36nm E 
010120Z 0101/0206 09005KT P6SM VCSH FEW030 BKN120 FM010300 00000KT P6SM OVC090 FM010800 VRB03KT P6SM VCSH OVC025 FM011000 05006KT P6SM VCSH OVC012 FM011700 09007KT P6SM VCTS OVC023CB FM012100 12008KT P6SM VCTS BKN035CB FM020300 VRB04KT P6SM OVC035
KRND 
37nm S 
312325Z 3123/0123 08006KT 9999 VCTS FEW025CB SCT040 QNH3007INS BECMG 0104/0105 VRB03KT 9000 BR OVC015 QNH3008INS BECMG 0111/0112 VRB05KT 4800 -DZ BR OVC005 QNH3008INS BECMG 0114/0115 10006KT 9000 BR VCSH SCT007 BKN012 QNH3010INS BECMG 0117/0118 09007KT 9999 NSW SCT012 BKN020 QNH3006INS BECMG 0120/0121 12009KT 9999 VCTS FEW020CB BKN025 QNH3005INS TX27/0120Z TN21/0111Z LAST NO AMDS AFT 3123 NEXT 0110
NOTAMs
Click for the latest NOTAMs
NOTAMs are issued by the DoD/FAA and will open in a separate window not controlled by AirNav.

 

 
 

Would you like to see your business listed on this page?

 If your business provides an interesting product or service to pilots, flight crews, aircraft, or users of the Blanco Landing Airport, you should consider listing it here.  To start the listing process, click on the button below
 
Add a business
 

Other Pages about Blanco Landing Airport

Update a link
 
Copyright © AirNav, LLC. All rights reserved. Privacy Policy  Contact